Time;durP1;ratioP1;P1;durP2;ratioP2;P2;SDS_P1;SDS_P2;PMS_P1;PMS_P2;Temp;Humidity;BMP_temperature;BMP_pressure;BME280_temperature;BME280_humidity;BME280_pressure;Samples;Min_cycle;Max_cycle;Signal;HPM_P1;HPM_P2
2021/12/26 00:01:05;;;;;;;8.63;4.58;;;;;;;-2.99;54.96;100173.01;1667325;82;21079;-57
2021/12/26 00:03:32;;;;;;;6.33;3.60;;;;;;;-3.01;55.04;100174.79;1714576;82;21603;-58
2021/12/26 00:06:05;;;;;;;8.38;4.03;;;;;;;-3.02;55.05;100176.12;1707498;82;21158;-59
2021/12/26 00:08:35;;;;;;;11.38;3.85;;;;;;;-3.04;55.09;100178.73;1704590;82;21602;-59
2021/12/26 00:11:01;;;;;;;8.13;3.37;;;;;;;-3.06;55.02;100183.50;1724166;82;21066;-59
2021/12/26 00:13:29;;;;;;;10.60;4.00;;;;;;;-3.10;55.07;100190.47;1716831;82;21094;-57
2021/12/26 00:15:58;;;;;;;6.60;3.10;;;;;;;-3.16;55.15;100191.94;1718942;83;21078;-57
2021/12/26 00:18:24;;;;;;;9.20;4.15;;;;;;;-3.20;55.28;100191.16;1714300;82;21959;-57
2021/12/26 00:20:51;;;;;;;6.85;2.85;;;;;;;-3.22;55.36;100192.92;1712582;83;21097;-57
2021/12/26 00:23:18;;;;;;;6.70;3.67;;;;;;;-3.24;55.33;100190.01;1715919;82;21046;-58
2021/12/26 00:25:45;;;;;;;7.60;3.25;;;;;;;-3.24;55.31;100194.70;1719081;83;21534;-58
2021/12/26 00:28:12;;;;;;;7.75;3.40;;;;;;;-3.29;55.45;100191.41;1714740;82;21621;-58
2021/12/26 00:30:38;;;;;;;14.58;4.03;;;;;;;-3.28;55.50;100193.53;1687248;83;21078;-58
2021/12/26 00:33:04;;;;;;;9.15;4.40;;;;;;;-3.34;55.42;100194.55;1690868;83;21045;-58
2021/12/26 00:35:33;;;;;;;10.88;4.28;;;;;;;-3.40;55.64;100192.95;1714252;82;21033;-57
2021/12/26 00:38:00;;;;;;;9.40;4.70;;;;;;;-3.43;55.75;100198.62;1715305;82;21026;-58
2021/12/26 00:40:28;;;;;;;7.42;3.60;;;;;;;-3.49;55.79;100201.38;1718563;82;21043;-58
2021/12/26 00:42:56;;;;;;;8.93;4.03;;;;;;;-3.58;56.05;100196.86;1718666;82;21163;-58
2021/12/26 00:45:22;;;;;;;10.10;4.33;;;;;;;-3.58;56.16;100193.00;1691347;83;21058;-57
2021/12/26 00:47:49;;;;;;;10.60;3.92;;;;;;;-3.58;56.13;100199.42;1715041;82;21507;-58
2021/12/26 00:50:19;;;;;;;13.35;5.12;;;;;;;-3.63;56.16;100199.98;1692219;83;21049;-58
2021/12/26 00:52:46;;;;;;;10.58;4.42;;;;;;;-3.71;56.37;100198.03;1714386;82;21035;-58
2021/12/26 00:55:13;;;;;;;10.10;4.35;;;;;;;-3.74;56.50;100207.94;1716980;82;23476;-58
2021/12/26 00:57:40;;;;;;;8.73;4.03;;;;;;;-3.76;56.54;100205.02;1710728;82;21109;-58
2021/12/26 01:00:10;;;;;;;10.20;3.87;;;;;;;-3.83;56.72;100200.88;1715409;82;22175;-58
2021/12/26 01:02:38;;;;;;;9.00;4.25;;;;;;;-3.83;56.81;100194.45;1716760;82;21050;-58
2021/12/26 01:05:06;;;;;;;7.78;4.22;;;;;;;-3.84;56.75;100199.21;1690657;82;21052;-57
2021/12/26 01:10:19;;;;;;;7.83;3.65;;;;;;;-3.85;56.94;100197.09;1694514;84;21033;-57
2021/12/26 01:12:46;;;;;;;13.53;4.47;;;;;;;-3.81;56.87;100188.86;1672352;84;21109;-58
2021/12/26 01:15:12;;;;;;;8.03;3.42;;;;;;;-3.81;56.80;100191.43;1692611;82;21027;-58
2021/12/26 01:17:44;;;;;;;7.12;3.80;;;;;;;-3.81;56.83;100186.28;1695219;84;21102;-58
2021/12/26 01:20:18;;;;;;;6.87;3.42;;;;;;;-3.82;56.79;100180.73;1699737;84;21143;-59
2021/12/26 01:22:45;;;;;;;8.58;3.77;;;;;;;-3.84;56.79;100179.92;1691283;83;21063;-57
2021/12/26 01:25:13;;;;;;;12.43;4.25;;;;;;;-3.85;56.87;100183.37;1693921;84;21075;-58
2021/12/26 01:27:40;;;;;;;8.70;4.37;;;;;;;-3.87;56.79;100194.13;1712976;82;21070;-59
2021/12/26 01:30:08;;;;;;;8.00;3.42;;;;;;;-3.94;57.02;100193.44;1676434;84;21761;-59
2021/12/26 01:32:38;;;;;;;8.98;4.47;;;;;;;-3.94;57.06;100194.27;1700329;83;21500;-58
2021/12/26 01:35:23;;;;;;;10.50;4.65;;;;;;;-3.93;57.07;100202.39;1690272;84;21051;-58
2021/12/26 01:37:51;;;;;;;6.90;3.22;;;;;;;-3.94;56.98;100203.72;1651235;84;21360;-59
2021/12/26 01:40:19;;;;;;;9.23;4.22;;;;;;;-3.96;57.00;100191.34;1679114;84;21102;-58
2021/12/26 01:42:48;;;;;;;9.98;4.30;;;;;;;-3.96;57.16;100196.03;1687690;84;21052;-59
2021/12/26 01:45:19;;;;;;;8.95;4.47;;;;;;;-3.89;57.03;100203.62;1677167;84;23331;-59
2021/12/26 01:47:47;;;;;;;9.90;4.17;;;;;;;-3.87;56.98;100201.39;1690299;84;21363;-59
2021/12/26 01:50:14;;;;;;;10.20;4.03;;;;;;;-3.84;56.94;100199.21;1674747;84;21572;-58
2021/12/26 01:52:41;;;;;;;10.08;3.70;;;;;;;-3.80;56.86;100200.81;1695193;84;21106;-58
2021/12/26 01:55:22;;;;;;;6.42;3.22;;;;;;;-3.75;56.74;100214.41;1670065;84;21162;-58
2021/12/26 01:57:41;;;;;;;10.28;3.50;;;;;;;-3.74;56.61;100207.11;1688527;83;21087;-58
2021/12/26 02:00:09;;;;;;;8.63;3.75;;;;;;;-3.72;56.38;100218.19;1698444;83;21078;-58
2021/12/26 02:02:38;;;;;;;7.37;3.45;;;;;;;-3.77;56.38;100216.17;1660635;84;21369;-58
2021/12/26 02:05:06;;;;;;;5.30;2.80;;;;;;;-3.81;56.31;100209.42;1698420;82;21064;-58
2021/12/26 02:07:34;;;;;;;7.60;3.75;;;;;;;-3.81;56.41;100218.42;1676377;84;21063;-58
2021/12/26 02:10:01;;;;;;;7.80;4.17;;;;;;;-3.84;56.45;100218.05;1704774;83;21110;-58
2021/12/26 02:12:27;;;;;;;7.85;3.77;;;;;;;-3.83;56.54;100221.45;1671276;84;21723;-58
2021/12/26 02:14:54;;;;;;;8.10;4.30;;;;;;;-3.83;56.46;100225.30;1698334;83;21081;-59
2021/12/26 02:17:25;;;;;;;8.80;4.22;;;;;;;-3.82;56.44;100221.86;1689658;83;21076;-57
2021/12/26 02:19:54;;;;;;;12.78;3.67;;;;;;;-3.80;56.31;100220.09;1674565;84;21047;-58
2021/12/26 02:22:28;;;;;;;8.18;3.98;;;;;;;-3.77;56.30;100222.15;1686753;83;21870;-58
2021/12/26 02:27:32;;;;;;;6.78;3.52;;;;;;;-3.65;56.16;100222.75;1745723;81;21079;-58
2021/12/26 02:30:08;;;;;;;7.78;3.55;;;;;;;-3.62;55.90;100230.39;1682180;83;21667;-59
2021/12/26 02:32:36;;;;;;;7.40;3.37;;;;;;;-3.59;55.83;100229.88;1737691;80;21027;-58
2021/12/26 02:35:04;;;;;;;7.12;3.95;;;;;;;-3.57;55.60;100220.84;1710442;82;21542;-58
2021/12/26 02:37:30;;;;;;;8.05;4.15;;;;;;;-3.58;55.32;100233.28;1712215;83;21050;-59
2021/12/26 02:39:58;;;;;;;12.90;4.05;;;;;;;-3.60;55.34;100231.19;1698822;82;21507;-59
2021/12/26 02:42:24;;;;;;;9.23;4.03;;;;;;;-3.64;55.19;100233.00;1729547;81;21023;-59
2021/12/26 02:44:51;;;;;;;11.65;3.98;;;;;;;-3.69;55.30;100232.72;1743792;81;21098;-59
2021/12/26 02:47:38;;;;;;;6.12;3.17;;;;;;;-3.69;55.32;100232.27;1734825;80;22848;-59
2021/12/26 02:50:15;;;;;;;10.23;3.85;;;;;;;-3.71;55.14;100237.89;1736199;81;21040;-59
2021/12/26 02:52:42;;;;;;;6.60;3.27;;;;;;;-3.80;55.10;100235.52;1723581;82;21019;-59
2021/12/26 02:55:10;;;;;;;8.43;4.10;;;;;;;-3.86;55.37;100236.97;1704265;82;21141;-59
2021/12/26 02:57:37;;;;;;;6.95;3.55;;;;;;;-3.88;55.74;100238.29;1727912;82;21091;-58
2021/12/26 03:00:14;;;;;;;9.88;3.37;;;;;;;-3.84;55.80;100246.77;1720829;81;21102;-58
2021/12/26 03:02:43;;;;;;;5.95;2.85;;;;;;;-3.85;55.89;100251.50;1737531;80;21508;-58
2021/12/26 03:05:10;;;;;;;8.65;3.55;;;;;;;-3.85;56.02;100250.21;1726981;81;21027;-59
2021/12/26 03:07:36;;;;;;;10.70;4.30;;;;;;;-3.82;55.95;100252.27;1732000;81;21122;-59
2021/12/26 03:10:05;;;;;;;5.78;3.02;;;;;;;-3.83;55.84;100246.73;1737481;80;21540;-57
2021/12/26 03:12:33;;;;;;;9.48;3.67;;;;;;;-3.87;55.81;100254.09;1737416;81;21050;-57
2021/12/26 03:15:00;;;;;;;7.80;4.20;;;;;;;-3.97;55.79;100256.05;1724695;81;21552;-58
2021/12/26 03:17:28;;;;;;;9.03;4.35;;;;;;;-4.05;55.95;100257.95;1691015;83;21106;-57
2021/12/26 03:19:55;;;;;;;8.55;4.15;;;;;;;-4.14;56.07;100261.53;1682422;84;21049;-58
2021/12/26 03:22:26;;;;;;;13.88;6.42;;;;;;;-4.22;56.24;100263.45;1681624;84;21135;-57
2021/12/26 03:24:52;;;;;;;10.75;5.17;;;;;;;-4.30;56.45;100264.05;1658718;84;21133;-58
2021/12/26 03:27:19;;;;;;;11.28;5.30;;;;;;;-4.37;57.00;100260.75;1686154;84;21056;-58
2021/12/26 03:29:45;;;;;;;12.05;4.97;;;;;;;-4.42;57.29;100263.86;1671944;84;21084;-58
2021/12/26 03:32:14;;;;;;;9.53;4.37;;;;;;;-4.46;57.47;100264.78;1664525;84;21020;-58
2021/12/26 03:34:47;;;;;;;9.63;4.60;;;;;;;-4.50;57.57;100264.00;1690871;84;21162;-58
2021/12/26 03:37:13;;;;;;;9.83;4.50;;;;;;;-4.52;57.56;100268.78;1681289;84;21117;-58
2021/12/26 03:39:40;;;;;;;12.58;5.37;;;;;;;-4.58;57.63;100283.02;1689574;84;21514;-58
2021/12/26 03:42:08;;;;;;;9.98;4.78;;;;;;;-4.59;57.76;100285.16;1665928;84;21088;-58
2021/12/26 03:44:35;;;;;;;8.28;4.53;;;;;;;-4.64;57.65;100286.97;1669702;84;21172;-58
2021/12/26 03:47:04;;;;;;;10.20;4.92;;;;;;;-4.71;57.59;100289.67;1680227;84;21106;-58
2021/12/26 03:49:31;;;;;;;10.53;4.75;;;;;;;-4.75;57.80;100288.47;1679287;84;21137;-58
2021/12/26 03:51:57;;;;;;;7.87;4.05;;;;;;;-4.75;57.85;100287.19;1687145;84;21524;-58
2021/12/26 03:54:24;;;;;;;7.37;4.33;;;;;;;-4.74;57.75;100279.88;1680423;84;21093;-58
2021/12/26 03:56:51;;;;;;;9.15;4.03;;;;;;;-4.76;57.71;100286.31;1688632;83;21519;-58
2021/12/26 03:59:20;;;;;;;11.05;4.83;;;;;;;-4.80;57.68;100284.70;1659108;84;21467;-58
2021/12/26 04:01:47;;;;;;;8.00;3.80;;;;;;;-4.83;57.67;100285.19;1679390;83;21046;-58
2021/12/26 04:04:15;;;;;;;6.72;3.83;;;;;;;-4.88;57.78;100288.67;1705303;82;21125;-58
2021/12/26 04:06:41;;;;;;;9.43;4.87;;;;;;;-4.90;57.80;100285.73;1711647;83;21046;-58
2021/12/26 04:09:08;;;;;;;7.97;4.10;;;;;;;-4.92;57.87;100284.93;1679019;83;22141;-59
2021/12/26 04:11:36;;;;;;;10.18;4.65;;;;;;;-4.97;57.81;100285.45;1697164;82;21175;-57
2021/12/26 04:14:03;;;;;;;11.22;4.67;;;;;;;-5.00;57.92;100289.34;1692479;84;21130;-58
2021/12/26 04:16:30;;;;;;;7.92;3.62;;;;;;;-5.02;58.05;100290.66;1678703;84;20992;-58
2021/12/26 04:18:57;;;;;;;9.68;3.90;;;;;;;-5.02;58.18;100293.66;1697769;82;22297;-59
2021/12/26 04:21:24;;;;;;;8.93;4.30;;;;;;;-4.99;58.22;100288.45;1681001;83;21095;-58
2021/12/26 04:23:55;;;;;;;9.20;4.53;;;;;;;-4.95;58.15;100291.39;1703823;83;21347;-58
2021/12/26 04:26:22;;;;;;;9.50;4.55;;;;;;;-4.92;58.15;100292.18;1703121;83;21095;-58
2021/12/26 04:28:49;;;;;;;10.25;4.20;;;;;;;-4.88;58.04;100295.09;1682911;83;21125;-59
2021/12/26 04:31:16;;;;;;;10.08;5.10;;;;;;;-4.85;57.97;100293.75;1673028;83;21099;-59
2021/12/26 04:33:43;;;;;;;10.30;4.08;;;;;;;-4.83;57.96;100292.45;1707052;83;21031;-60
2021/12/26 04:36:09;;;;;;;7.50;3.22;;;;;;;-4.81;57.84;100299.67;1709863;83;21066;-58
2021/12/26 04:38:36;;;;;;;15.58;4.33;;;;;;;-4.80;57.84;100300.55;1696727;83;21107;-58
2021/12/26 04:41:05;;;;;;;10.20;4.70;;;;;;;-4.77;57.66;100302.61;1700033;83;21575;-59
2021/12/26 04:43:38;;;;;;;7.95;4.33;;;;;;;-4.79;57.64;100299.23;1706632;83;21064;-58
2021/12/26 04:46:10;;;;;;;7.95;4.35;;;;;;;-4.78;57.56;100295.77;1677925;83;21024;-58
2021/12/26 04:48:53;;;;;;;10.23;4.55;;;;;;;-4.80;57.68;100298.81;1682207;83;21054;-58
2021/12/26 04:51:19;;;;;;;8.68;4.35;;;;;;;-4.79;57.61;100305.66;1742687;80;21161;-59
2021/12/26 04:53:48;;;;;;;10.53;4.80;;;;;;;-4.79;57.55;100306.94;1735692;81;21596;-58
2021/12/26 04:56:14;;;;;;;10.25;5.62;;;;;;;-4.80;57.60;100310.81;1738794;81;21074;-59
2021/12/26 04:58:41;;;;;;;11.15;5.92;;;;;;;-4.82;57.58;100310.84;1746439;82;21090;-59
2021/12/26 05:01:08;;;;;;;12.85;6.67;;;;;;;-4.84;57.58;100319.01;1744734;80;21046;-60
2021/12/26 05:03:34;;;;;;;12.43;5.80;;;;;;;-4.88;57.59;100314.78;1740516;81;21642;-58
2021/12/26 05:06:01;;;;;;;10.88;5.08;;;;;;;-4.88;57.70;100321.20;1746707;80;21037;-58
2021/12/26 05:08:29;;;;;;;8.15;4.30;;;;;;;-4.87;57.71;100315.20;1744680;80;21955;-58
2021/12/26 05:10:57;;;;;;;11.55;4.55;;;;;;;-4.84;57.69;100320.30;1746869;81;21098;-58
2021/12/26 05:13:23;;;;;;;8.75;4.33;;;;;;;-4.85;57.68;100320.70;1747819;81;21044;-59
2021/12/26 05:15:50;;;;;;;10.55;4.92;;;;;;;-4.83;57.69;100324.53;1709815;82;21683;-59
2021/12/26 05:18:18;;;;;;;8.88;4.55;;;;;;;-4.86;57.67;100328.02;1705165;82;21058;-58
2021/12/26 05:20:45;;;;;;;10.55;5.22;;;;;;;-4.86;57.75;100322.02;1680502;83;21097;-59
2021/12/26 05:23:12;;;;;;;9.58;4.58;;;;;;;-4.85;57.66;100330.97;1747220;80;21169;-60
2021/12/26 05:25:40;;;;;;;11.73;5.10;;;;;;;-4.87;57.63;100332.73;1753448;80;21118;-59
2021/12/26 05:28:07;;;;;;;10.98;5.35;;;;;;;-4.87;57.61;100340.42;1745735;81;21562;-59
2021/12/26 05:30:34;;;;;;;11.90;4.85;;;;;;;-4.89;57.63;100331.91;1710472;82;21091;-59
2021/12/26 05:33:05;;;;;;;11.33;4.53;;;;;;;-4.90;57.71;100335.34;1724243;81;21038;-60
2021/12/26 05:35:33;;;;;;;11.50;4.78;;;;;;;-4.88;57.70;100340.45;1746879;80;21086;-59
2021/12/26 05:38:00;;;;;;;10.93;4.70;;;;;;;-4.87;57.65;100343.44;1743364;81;21064;-59
2021/12/26 05:40:26;;;;;;;10.05;5.40;;;;;;;-4.90;57.64;100345.61;1679524;83;21571;-58
2021/12/26 05:42:53;;;;;;;10.88;5.25;;;;;;;-4.91;57.72;100339.22;1679800;83;21059;-58
2021/12/26 05:45:20;;;;;;;10.80;4.70;;;;;;;-4.89;57.80;100341.34;1746907;81;21033;-58
2021/12/26 05:47:52;;;;;;;8.63;4.97;;;;;;;-4.86;57.73;100352.81;1739838;80;21098;-58
2021/12/26 05:50:20;;;;;;;11.20;5.37;;;;;;;-4.90;57.75;100346.89;1740817;81;21616;-58
2021/12/26 05:52:47;;;;;;;11.85;4.97;;;;;;;-4.90;57.74;100354.59;1736446;80;21159;-58
2021/12/26 05:55:17;;;;;;;10.55;4.80;;;;;;;-4.90;57.71;100356.32;1699396;83;21090;-58
2021/12/26 05:57:45;;;;;;;10.85;5.12;;;;;;;-4.92;57.72;100360.20;1703191;83;21032;-57
2021/12/26 06:00:15;;;;;;;11.03;5.72;;;;;;;-4.97;57.86;100359.88;1702799;83;21104;-59
2021/12/26 06:02:44;;;;;;;12.63;5.85;;;;;;;-4.97;57.92;100367.57;1670875;83;21653;-59
2021/12/26 06:05:10;;;;;;;13.00;5.03;;;;;;;-4.94;58.02;100364.92;1672064;82;21206;-58
2021/12/26 06:07:37;;;;;;;14.95;5.20;;;;;;;-4.91;57.94;100365.75;1676312;84;21118;-58
2021/12/26 06:10:07;;;;;;;9.25;4.75;;;;;;;-4.89;57.87;100361.88;1702252;83;21040;-58
2021/12/26 06:12:35;;;;;;;10.15;5.10;;;;;;;-4.85;57.84;100362.22;1696213;83;21051;-57
2021/12/26 06:15:05;;;;;;;9.75;4.67;;;;;;;-4.85;57.71;100369.47;1695709;82;21063;-59
2021/12/26 06:17:32;;;;;;;10.78;6.08;;;;;;;-4.85;57.80;100368.64;1704677;83;21163;-57
2021/12/26 06:20:16;;;;;;;11.53;5.37;;;;;;;-4.86;57.73;100373.34;1699417;83;21063;-58
2021/12/26 06:22:57;;;;;;;12.80;5.70;;;;;;;-4.81;57.78;100374.56;1634496;84;21055;-58
2021/12/26 06:25:43;;;;;;;12.90;6.60;;;;;;;-4.78;57.70;100373.23;1698236;83;21084;-58
2021/12/26 06:28:11;;;;;;;13.68;5.97;;;;;;;-4.76;57.72;100381.30;1674949;84;21106;-58
2021/12/26 06:30:56;;;;;;;12.25;5.62;;;;;;;-4.72;57.68;100385.53;1696557;83;21865;-58
2021/12/26 06:33:34;;;;;;;7.97;4.37;;;;;;;-4.70;57.54;100389.36;1660651;84;21177;-58
2021/12/26 06:36:18;;;;;;;11.12;4.70;;;;;;;-4.70;57.60;100395.33;1737154;81;21059;-58
2021/12/26 06:39:04;;;;;;;10.85;5.78;;;;;;;-4.71;57.69;100396.22;1736617;81;21095;-58
2021/12/26 06:41:48;;;;;;;8.83;4.58;;;;;;;-4.70;57.73;100395.33;1733330;80;21085;-57
2021/12/26 06:44:23;;;;;;;10.25;5.62;;;;;;;-4.67;57.69;100400.42;1735316;82;21220;-58
2021/12/26 06:46:49;;;;;;;10.80;5.17;;;;;;;-4.65;57.70;100400.84;1734586;81;21144;-59
2021/12/26 06:49:30;;;;;;;11.78;5.55;;;;;;;-4.63;57.66;100401.66;1731100;81;21552;-58
2021/12/26 06:51:56;;;;;;;9.28;4.95;;;;;;;-4.63;57.71;100400.37;1672288;83;21094;-57
2021/12/26 06:54:23;;;;;;;12.23;5.78;;;;;;;-4.64;57.81;100399.50;1711687;81;22059;-59
2021/12/26 06:56:50;;;;;;;11.08;5.85;;;;;;;-4.62;57.85;100404.20;1739599;80;21136;-58
2021/12/26 06:59:17;;;;;;;14.93;5.25;;;;;;;-4.61;57.85;100401.19;1732953;80;21106;-58
2021/12/26 07:01:43;;;;;;;13.55;6.28;;;;;;;-4.60;57.92;100399.04;1681201;82;21066;-58
2021/12/26 07:04:11;;;;;;;9.43;5.45;;;;;;;-4.56;57.95;100406.64;1700837;82;21142;-59
2021/12/26 07:06:38;;;;;;;11.48;5.55;;;;;;;-4.52;57.83;100404.45;1691948;84;21061;-58
2021/12/26 07:09:06;;;;;;;12.50;6.00;;;;;;;-4.51;57.83;100406.56;1667653;84;21132;-59
2021/12/26 07:11:32;;;;;;;13.10;6.28;;;;;;;-4.46;57.83;100399.63;1726656;81;21566;-58
2021/12/26 07:13:59;;;;;;;12.03;4.78;;;;;;;-4.41;57.87;100397.81;1693264;82;21524;-58
2021/12/26 07:16:25;;;;;;;11.68;5.60;;;;;;;-4.36;57.63;100399.03;1733468;81;21099;-58
2021/12/26 07:18:52;;;;;;;9.75;5.20;;;;;;;-4.33;57.75;100402.83;1677058;83;21090;-58
2021/12/26 07:21:20;;;;;;;9.43;5.08;;;;;;;-4.31;57.61;100398.50;1679921;84;21233;-58
2021/12/26 07:23:54;;;;;;;9.78;4.67;;;;;;;-4.27;57.59;100396.72;1670571;83;21063;-58
2021/12/26 07:26:20;;;;;;;10.38;4.22;;;;;;;-4.26;57.56;100403.11;1700981;82;21064;-58
2021/12/26 07:28:47;;;;;;;10.03;4.60;;;;;;;-4.22;57.56;100403.90;1699446;82;21064;-58
2021/12/26 07:31:25;;;;;;;11.65;6.12;;;;;;;-4.21;57.31;100396.61;1696362;83;21088;-57
2021/12/26 07:33:53;;;;;;;10.28;4.87;;;;;;;-4.24;57.36;100401.36;1697375;83;21938;-58
2021/12/26 07:36:20;;;;;;;10.48;4.83;;;;;;;-4.26;57.40;100399.70;1697124;83;21306;-58
2021/12/26 07:38:53;;;;;;;10.90;5.37;;;;;;;-4.28;57.43;100401.47;1700809;83;21082;-58
2021/12/26 07:41:20;;;;;;;11.25;4.62;;;;;;;-4.28;57.49;100397.61;1699042;83;21555;-58
2021/12/26 07:43:47;;;;;;;11.63;5.50;;;;;;;-4.29;57.56;100398.03;1699087;83;21121;-58
2021/12/26 07:46:31;;;;;;;11.57;5.03;;;;;;;-4.27;57.68;100406.55;1670094;83;21234;-59
2021/12/26 07:49:00;;;;;;;12.80;5.35;;;;;;;-4.25;57.68;100402.66;1707434;83;21137;-58
2021/12/26 07:51:45;;;;;;;11.85;5.58;;;;;;;-4.24;57.72;100399.23;1689883;84;21052;-59
2021/12/26 07:54:15;;;;;;;14.07;5.15;;;;;;;-4.21;57.82;100404.33;1624966;83;21061;-57
2021/12/26 07:57:01;;;;;;;11.28;5.58;;;;;;;-4.19;57.71;100404.69;1679165;83;21103;-58
2021/12/26 07:59:46;;;;;;;11.75;4.95;;;;;;;-4.13;57.84;100413.57;1704670;83;22284;-57
2021/12/26 08:02:26;;;;;;;11.68;5.42;;;;;;;-4.06;57.95;100405.75;1627746;83;21133;-57
2021/12/26 08:05:13;;;;;;;;;;;;;;;-4.00;57.87;100409.05;1634992;87;21107;-58
2021/12/26 08:07:42;;;;;;;10.18;5.25;;;;;;;-3.94;57.90;100414.05;1578046;89;20193;-58
2021/12/26 08:10:09;;;;;;;12.50;5.03;;;;;;;-3.90;58.00;100410.14;1654981;80;21524;-59
2021/12/26 08:12:37;;;;;;;11.15;4.90;;;;;;;-3.86;57.90;100405.36;1719856;82;21071;-58
2021/12/26 08:15:04;;;;;;;13.18;4.70;;;;;;;-3.81;58.07;100406.95;1722747;81;20939;-59
2021/12/26 08:17:31;;;;;;;9.88;4.92;;;;;;;-3.75;57.99;100408.54;1735857;81;21768;-58
2021/12/26 08:19:58;;;;;;;9.80;5.30;;;;;;;-3.76;57.88;100402.56;1722561;82;21094;-60
2021/12/26 08:22:24;;;;;;;10.38;4.55;;;;;;;-3.75;58.02;100412.39;1743720;81;21054;-59
2021/12/26 08:24:51;;;;;;;15.43;5.37;;;;;;;-3.73;58.17;100406.80;1738643;80;21651;-60
2021/12/26 08:27:17;;;;;;;9.85;4.80;;;;;;;-3.69;58.21;100408.42;1745435;80;21059;-57
2021/12/26 08:29:46;;;;;;;10.70;4.70;;;;;;;-3.66;58.25;100406.24;1740717;80;21557;-57
2021/12/26 08:32:16;;;;;;;9.95;4.22;;;;;;;-3.61;58.21;100401.39;1707880;82;21173;-58
2021/12/26 08:34:43;;;;;;;9.40;5.12;;;;;;;-3.55;58.13;100406.42;1707768;82;21025;-60
2021/12/26 08:37:10;;;;;;;9.00;4.72;;;;;;;-3.50;58.24;100405.01;1679593;83;21082;-58
2021/12/26 08:39:40;;;;;;;10.85;5.05;;;;;;;-3.44;58.11;100406.17;1681151;82;21073;-58
2021/12/26 08:42:08;;;;;;;12.25;4.42;;;;;;;-3.40;58.05;100408.23;1710720;82;21591;-60
2021/12/26 08:44:35;;;;;;;11.28;5.10;;;;;;;-3.34;57.85;100402.13;1680261;83;22375;-58
2021/12/26 08:47:03;;;;;;;11.35;4.75;;;;;;;-3.30;57.87;100401.16;1739732;80;21045;-60
2021/12/26 08:49:30;;;;;;;12.82;5.08;;;;;;;-3.25;57.73;100392.44;1749187;80;21125;-60
2021/12/26 08:51:57;;;;;;;13.45;5.05;;;;;;;-3.24;57.92;100392.86;1746935;80;21047;-59
2021/12/26 08:54:26;;;;;;;8.63;4.50;;;;;;;-3.15;58.01;100380.22;1743601;80;21778;-60
2021/12/26 08:56:53;;;;;;;8.55;3.87;;;;;;;-3.07;57.82;100374.45;1745653;81;21139;-60
2021/12/26 08:59:29;;;;;;;10.60;4.95;;;;;;;-3.00;57.83;100373.41;1748924;81;21514;-58
2021/12/26 09:01:53;;;;;;;9.78;5.03;;;;;;;-2.90;57.82;100371.91;1741912;81;21296;-60
2021/12/26 09:04:19;;;;;;;13.68;4.45;;;;;;;-2.85;57.63;100369.61;1749202;81;21034;-58
2021/12/26 09:06:46;;;;;;;10.70;4.50;;;;;;;-2.81;57.68;100362.23;1746879;81;21086;-58
2021/12/26 09:09:14;;;;;;;8.90;4.22;;;;;;;-2.73;57.53;100374.06;1746689;80;21403;-58
2021/12/26 09:11:40;;;;;;;9.83;4.08;;;;;;;-2.70;57.33;100366.27;1714944;82;21511;-59
2021/12/26 09:14:08;;;;;;;13.68;4.70;;;;;;;-2.65;57.43;100371.69;1713748;83;21149;-59
2021/12/26 09:16:35;;;;;;;13.35;5.20;;;;;;;-2.56;57.48;100362.03;1716311;82;21547;-58
2021/12/26 09:19:03;;;;;;;9.78;4.47;;;;;;;-2.45;57.42;100356.16;1715229;82;21304;-58
2021/12/26 09:21:30;;;;;;;14.65;4.92;;;;;;;-2.31;57.01;100354.49;1709646;82;21641;-58
2021/12/26 09:23:57;;;;;;;9.85;4.40;;;;;;;-2.26;56.82;100357.34;1685601;82;21087;-58
2021/12/26 09:26:23;;;;;;;10.15;4.62;;;;;;;-2.19;56.94;100352.02;1713681;82;21590;-58
2021/12/26 09:28:50;;;;;;;10.30;4.20;;;;;;;-2.07;56.78;100356.82;1716574;82;21069;-57
2021/12/26 09:31:17;;;;;;;8.93;4.42;;;;;;;-1.98;56.44;100350.58;1711412;82;21562;-58
2021/12/26 09:33:44;;;;;;;8.68;4.12;;;;;;;-1.95;56.20;100355.63;1706558;82;21035;-58
2021/12/26 09:36:10;;;;;;;10.25;4.42;;;;;;;-1.72;56.53;100344.64;1712134;82;21544;-57
2021/12/26 09:38:37;;;;;;;8.68;3.90;;;;;;;-1.72;56.53;100344.64;1711542;82;21165;-57
2021/12/26 09:41:03;;;;;;;9.73;4.25;;;;;;;-1.58;55.80;100350.67;1684994;83;21543;-57
2021/12/26 09:43:30;;;;;;;11.20;3.92;;;;;;;-1.50;55.48;100349.57;1713120;82;21105;-58
2021/12/26 09:45:56;;;;;;;8.15;3.80;;;;;;;-1.48;54.79;100345.63;1711173;82;21101;-57
2021/12/26 09:48:23;;;;;;;7.60;3.08;;;;;;;-1.48;54.79;100345.63;1706576;82;21055;-58
2021/12/26 09:50:49;;;;;;;9.28;3.92;;;;;;;-1.54;54.41;100348.41;1695981;82;21161;-58
2021/12/26 09:53:17;;;;;;;10.65;3.87;;;;;;;-1.55;54.65;100338.52;1697075;82;21133;-58
2021/12/26 09:55:43;;;;;;;6.50;2.42;;;;;;;-1.55;54.50;100337.67;1734744;80;21509;-58
2021/12/26 09:58:09;;;;;;;9.78;3.27;;;;;;;-1.51;54.79;100343.16;1697698;82;21090;-59
2021/12/26 10:00:42;;;;;;;6.28;3.17;;;;;;;-1.50;54.12;100339.25;1692696;82;21078;-59
2021/12/26 10:03:59;;;;;;;8.18;3.17;;;;;;;-1.45;53.73;100324.05;1777736;78;22335;-58
2021/12/26 10:06:29;;;;;;;9.13;2.60;;;;;;;-1.47;53.84;100329.25;1746392;80;21102;-58
2021/12/26 10:09:05;;;;;;;6.92;2.33;;;;;;;-1.43;53.13;100329.58;1707140;81;22005;-58
2021/12/26 10:11:34;;;;;;;8.75;2.70;;;;;;;-1.43;52.92;100332.16;1684927;83;21415;-59
2021/12/26 10:14:09;;;;;;;6.83;2.98;;;;;;;-1.41;53.20;100326.49;1702910;81;20997;-59
2021/12/26 10:16:39;;;;;;;12.37;2.52;;;;;;;-1.39;53.16;100324.70;1705361;82;21101;-58
2021/12/26 10:19:06;;;;;;;6.87;3.17;;;;;;;-1.37;52.64;100327.23;1716090;81;21512;-58
2021/12/26 10:21:52;;;;;;;8.25;2.85;;;;;;;-1.36;52.44;100333.64;1714029;82;21153;-57
2021/12/26 10:24:30;;;;;;;7.97;2.90;;;;;;;-1.40;52.68;100326.88;1710714;82;21604;-58
2021/12/26 10:27:06;;;;;;;6.08;2.85;;;;;;;-1.36;53.05;100324.61;1667368;83;21027;-58
2021/12/26 10:29:38;;;;;;;6.72;2.35;;;;;;;-1.24;52.69;100325.13;1714795;82;21129;-59
2021/12/26 10:32:20;;;;;;;10.45;2.67;;;;;;;-1.12;52.42;100332.00;1715263;83;21009;-58
2021/12/26 10:34:55;;;;;;;6.85;2.30;;;;;;;-1.12;52.42;100332.00;1714792;82;21794;-58
2021/12/26 10:37:28;;;;;;;6.87;2.47;;;;;;;-1.11;51.38;100334.12;1716637;82;21062;-57
2021/12/26 10:40:00;;;;;;;8.55;2.70;;;;;;;-1.07;51.57;100330.57;1709568;82;21709;-59
2021/12/26 10:42:33;;;;;;;6.33;2.27;;;;;;;-1.09;51.20;100327.63;1712942;82;21062;-57
2021/12/26 10:45:03;;;;;;;6.85;2.37;;;;;;;-1.00;51.68;100317.84;1709707;82;21622;-57
2021/12/26 10:47:32;;;;;;;6.97;2.20;;;;;;;-1.00;51.68;100317.84;1714356;83;21210;-58
2021/12/26 10:50:06;;;;;;;6.30;2.20;;;;;;;-0.93;50.80;100326.23;1714800;82;21058;-59
2021/12/26 10:52:58;;;;;;;6.08;2.20;;;;;;;-0.88;50.84;100324.80;1696784;83;21148;-57
2021/12/26 10:55:33;;;;;;;5.35;2.22;;;;;;;-0.84;51.14;100326.36;1714974;82;21086;-57
2021/12/26 10:58:06;;;;;;;5.58;2.20;;;;;;;-0.76;50.82;100334.70;1715765;83;21101;-58
2021/12/26 11:00:36;;;;;;;5.03;2.02;;;;;;;-0.71;50.70;100329.39;1711395;82;21437;-58
2021/12/26 11:03:09;;;;;;;8.18;2.30;;;;;;;-0.65;50.71;100338.23;1681768;83;21909;-58
2021/12/26 11:05:45;;;;;;;11.73;2.90;;;;;;;-0.69;49.95;100336.20;1703545;83;21065;-58
2021/12/26 11:08:16;;;;;;;5.87;2.35;;;;;;;-0.67;50.16;100330.53;1703694;82;21089;-58
2021/12/26 11:10:51;;;;;;;8.60;2.58;;;;;;;-0.71;50.16;100342.30;1696692;82;21412;-57
2021/12/26 11:13:30;;;;;;;7.45;2.25;;;;;;;-0.76;50.12;100321.78;1706606;83;21018;-58
2021/12/26 11:16:02;;;;;;;6.97;2.47;;;;;;;-0.79;50.28;100334.80;1705506;83;21032;-58
2021/12/26 11:18:28;;;;;;;5.05;1.90;;;;;;;-0.80;50.58;100326.67;1705705;83;21014;-58
2021/12/26 11:21:11;;;;;;;7.25;2.40;;;;;;;-0.84;50.88;100338.86;1697503;84;21085;-58
2021/12/26 11:23:39;;;;;;;5.20;2.08;;;;;;;-0.82;50.52;100332.34;1691870;83;21071;-58
2021/12/26 11:26:10;;;;;;;9.00;2.35;;;;;;;-0.83;50.96;100331.94;1696078;82;21145;-58
2021/12/26 11:28:42;;;;;;;8.78;2.12;;;;;;;-0.82;50.27;100341.39;1693533;83;21072;-58
2021/12/26 11:31:11;;;;;;;8.45;2.12;;;;;;;-0.88;50.81;100334.67;1700586;84;21099;-58
2021/12/26 11:33:40;;;;;;;5.40;1.85;;;;;;;-0.88;50.81;100334.67;1695613;83;21662;-59
2021/12/26 11:36:09;;;;;;;4.40;1.92;;;;;;;-0.83;50.79;100315.15;1669570;84;21067;-59
2021/12/26 11:38:36;;;;;;;5.17;2.00;;;;;;;-0.82;50.34;100333.19;1705352;82;21131;-59